createdAt,value
2022-11-13T00:01:18.294Z,23.00
2022-11-13T00:03:47.290Z,23.00
2022-11-13T00:06:17.102Z,25.00
2022-11-13T00:08:45.891Z,24.00
2022-11-13T00:11:18.597Z,21.00
2022-11-13T00:13:48.280Z,17.00
2022-11-13T00:16:19.091Z,26.00
2022-11-13T00:18:48.328Z,26.50
2022-11-13T00:21:19.260Z,23.00
2022-11-13T00:23:47.532Z,21.00
2022-11-13T00:26:21.346Z,20.50
2022-11-13T00:28:58.118Z,23.00
2022-11-13T00:31:26.904Z,19.00
2022-11-13T00:36:44.246Z,22.00
2022-11-13T00:39:12.732Z,20.00
2022-11-13T00:41:40.877Z,23.00
2022-11-13T00:44:09.400Z,21.67
2022-11-13T00:46:37.864Z,21.00
2022-11-13T00:49:06.245Z,20.50
2022-11-13T00:51:34.519Z,26.00
2022-11-13T00:54:03.002Z,18.33
2022-11-13T00:56:31.390Z,22.00
2022-11-13T00:58:59.760Z,23.00
2022-11-13T01:01:28.194Z,23.00
2022-11-13T01:03:57.036Z,25.50
2022-11-13T01:06:27.561Z,21.00
2022-11-13T01:08:57.066Z,18.00
2022-11-13T01:11:27.229Z,20.50
2022-11-13T01:13:55.979Z,23.00
2022-11-13T01:16:26.034Z,17.00
2022-11-13T01:18:55.703Z,22.67
2022-11-13T01:21:26.562Z,20.00
2022-11-13T01:23:55.367Z,23.00
2022-11-13T01:26:30.780Z,23.50
2022-11-13T01:29:00.619Z,24.50
2022-11-13T01:31:31.141Z,22.00
2022-11-13T01:33:59.298Z,22.00
2022-11-13T01:36:29.003Z,23.00
2022-11-13T01:38:57.693Z,21.50
2022-11-13T01:41:32.317Z,18.50
2022-11-13T01:44:01.413Z,20.00
2022-11-13T01:46:31.395Z,19.00
2022-11-13T01:49:13.332Z,20.00
2022-11-13T01:51:59.524Z,25.00
2022-11-13T01:54:30.673Z,19.50
2022-11-13T01:56:59.765Z,21.00
2022-11-13T01:59:33.108Z,21.00
2022-11-13T02:02:01.787Z,17.50
2022-11-13T02:04:31.155Z,21.00
2022-11-13T02:07:06.803Z,16.50
2022-11-13T02:09:41.014Z,16.00
2022-11-13T02:12:12.821Z,19.00
2022-11-13T02:14:46.986Z,19.00
2022-11-13T02:17:20.151Z,21.00
2022-11-13T02:19:52.348Z,19.00
2022-11-13T02:22:44.701Z,17.00
2022-11-13T02:25:13.994Z,20.00
2022-11-13T02:27:45.749Z,18.50
2022-11-13T02:30:19.776Z,17.00
2022-11-13T02:32:54.493Z,18.50
2022-11-13T02:35:32.597Z,16.50
2022-11-13T02:38:03.230Z,19.00
2022-11-13T02:40:34.792Z,21.00
2022-11-13T02:43:03.163Z,19.50
2022-11-13T02:45:31.546Z,19.00
2022-11-13T02:48:01.208Z,17.00
2022-11-13T02:50:29.529Z,15.50
2022-11-13T02:52:58.136Z,18.33
2022-11-13T02:55:26.591Z,18.50
2022-11-13T02:57:54.765Z,18.00
2022-11-13T03:00:23.146Z,17.00
2022-11-13T03:02:51.542Z,17.00
2022-11-13T03:05:20.006Z,18.00
2022-11-13T03:07:48.284Z,17.50
2022-11-13T03:10:16.969Z,13.50
2022-11-13T03:12:45.269Z,15.50
2022-11-13T03:15:14.146Z,15.50
2022-11-13T03:17:42.623Z,10.50
2022-11-13T03:20:11.006Z,16.00
2022-11-13T03:22:39.379Z,14.50
2022-11-13T03:25:10.740Z,18.00
2022-11-13T03:27:39.418Z,20.50
2022-11-13T03:30:08.628Z,17.00
2022-11-13T03:32:36.936Z,18.00
2022-11-13T03:35:06.387Z,18.00
2022-11-13T03:37:34.674Z,15.50
2022-11-13T03:40:03.050Z,17.00
2022-11-13T03:42:31.840Z,18.50
2022-11-13T03:45:00.124Z,17.00
2022-11-13T03:47:28.539Z,14.00
2022-11-13T03:49:56.978Z,13.00
2022-11-13T03:52:25.356Z,16.50
2022-11-13T03:54:53.741Z,14.33
2022-11-13T03:57:22.148Z,17.00
2022-11-13T03:59:50.609Z,18.00
2022-11-13T04:02:18.875Z,16.00
2022-11-13T04:04:47.259Z,14.00
2022-11-13T04:07:15.557Z,15.50
2022-11-13T04:09:44.011Z,17.00
2022-11-13T04:12:12.493Z,17.00
2022-11-13T04:14:40.873Z,13.50
2022-11-13T04:17:09.251Z,15.00
2022-11-13T04:19:37.629Z,17.00
2022-11-13T04:22:06.009Z,16.50
2022-11-13T04:24:34.392Z,17.00
2022-11-13T04:27:02.666Z,14.00
2022-11-13T04:29:31.048Z,15.00
2022-11-13T04:31:59.328Z,12.00
2022-11-13T04:34:27.599Z,15.67
2022-11-13T04:36:55.993Z,16.00
2022-11-13T04:39:24.567Z,15.00
2022-11-13T04:42:11.395Z,14.00
2022-11-13T04:44:39.752Z,15.00
2022-11-13T04:47:08.851Z,14.00
2022-11-13T04:49:37.227Z,14.00
2022-11-13T04:52:05.609Z,12.50
2022-11-13T04:54:33.985Z,14.00
2022-11-13T04:57:02.369Z,15.00
2022-11-13T04:59:30.643Z,16.00
2022-11-13T05:01:59.280Z,16.50
2022-11-13T05:04:27.830Z,13.00
2022-11-13T05:06:56.199Z,13.00
2022-11-13T05:09:24.573Z,17.00
2022-11-13T05:11:52.952Z,15.00
2022-11-13T05:14:21.537Z,14.00
2022-11-13T05:16:50.635Z,12.00
2022-11-13T05:19:19.216Z,14.00
2022-11-13T05:21:47.493Z,12.00
2022-11-13T05:24:15.867Z,14.50
2022-11-13T05:26:44.146Z,14.00
2022-11-13T05:29:12.526Z,15.50
2022-11-13T05:31:40.800Z,12.00
2022-11-13T05:34:09.283Z,11.00
2022-11-13T05:36:37.610Z,13.00
2022-11-13T05:39:06.657Z,10.00
2022-11-13T05:41:34.831Z,13.00
2022-11-13T05:44:03.213Z,14.00
2022-11-13T05:46:31.694Z,13.50
2022-11-13T05:49:01.401Z,11.50
2022-11-13T05:51:32.329Z,16.00
2022-11-13T05:56:31.865Z,15.00
2022-11-13T05:59:01.270Z,13.00
2022-11-13T06:03:59.257Z,12.00
2022-11-13T06:06:28.968Z,16.00
2022-11-13T06:08:58.732Z,13.50
2022-11-13T06:11:29.108Z,11.50
2022-11-13T06:13:58.717Z,16.00
2022-11-13T06:16:34.259Z,17.00
2022-11-13T06:19:05.288Z,12.50
2022-11-13T06:21:35.421Z,16.00
2022-11-13T06:24:04.416Z,14.00
2022-11-13T06:26:35.148Z,17.50
2022-11-13T06:29:05.746Z,12.50
2022-11-13T06:31:36.210Z,15.00
2022-11-13T06:34:05.713Z,16.50
2022-11-13T06:36:36.144Z,14.50
2022-11-13T06:39:09.081Z,15.33
2022-11-13T06:41:38.473Z,17.00
2022-11-13T06:44:06.813Z,18.50
2022-11-13T06:46:35.191Z,16.50
2022-11-13T06:49:03.670Z,14.00
2022-11-13T06:51:32.461Z,15.00
2022-11-13T06:54:00.841Z,12.00
2022-11-13T06:56:29.225Z,15.00
2022-11-13T06:58:57.699Z,15.50
2022-11-13T07:01:27.382Z,17.00
2022-11-13T07:03:55.891Z,16.50
2022-11-13T07:06:25.191Z,18.00
2022-11-13T07:08:53.789Z,16.00
2022-11-13T07:11:24.412Z,14.33
2022-11-13T07:13:52.687Z,16.00
2022-11-13T07:16:23.831Z,15.50
2022-11-13T07:18:53.653Z,14.50
2022-11-13T07:21:22.639Z,17.00
2022-11-13T07:23:51.458Z,14.50
2022-11-13T07:26:19.908Z,19.00
2022-11-13T07:28:48.902Z,18.00
2022-11-13T07:31:18.513Z,15.50
2022-11-13T07:33:48.845Z,16.00
2022-11-13T07:36:17.422Z,15.50
2022-11-13T07:38:45.593Z,16.50
2022-11-13T07:41:13.972Z,13.50
2022-11-13T07:43:42.353Z,15.50
2022-11-13T07:46:10.735Z,16.00
2022-11-13T07:48:39.315Z,14.00
2022-11-13T07:51:07.512Z,15.00
2022-11-13T07:53:36.279Z,15.50
2022-11-13T07:56:05.347Z,15.00
2022-11-13T07:58:33.514Z,16.50
2022-11-13T08:01:06.005Z,14.00
2022-11-13T08:03:34.608Z,14.00
2022-11-13T08:06:05.476Z,16.50
2022-11-13T08:08:34.751Z,17.00
2022-11-13T08:11:07.559Z,24.00
2022-11-13T08:13:36.933Z,24.00
2022-11-13T08:16:05.551Z,28.50
2022-11-13T08:18:34.105Z,31.50
2022-11-13T08:21:03.337Z,29.33
2022-11-13T08:23:32.400Z,30.00
2022-11-13T08:26:05.099Z,31.00
2022-11-13T08:28:33.969Z,32.33
2022-11-13T08:31:03.380Z,32.50
2022-11-13T08:33:31.957Z,35.00
2022-11-13T08:36:00.850Z,36.00
2022-11-13T08:38:29.649Z,31.00
2022-11-13T08:41:01.280Z,33.00
2022-11-13T08:43:33.166Z,33.00
2022-11-13T08:46:01.430Z,34.00
2022-11-13T08:48:30.007Z,36.00
2022-11-13T08:50:59.010Z,36.50
2022-11-13T08:53:27.491Z,36.50
2022-11-13T08:55:55.868Z,36.00
2022-11-13T08:58:24.255Z,40.00
2022-11-13T09:00:52.522Z,39.00
2022-11-13T09:03:20.954Z,40.50
2022-11-13T09:05:49.487Z,34.00
2022-11-13T09:08:17.867Z,36.50
2022-11-13T09:10:46.247Z,38.00
2022-11-13T09:13:14.934Z,32.50
2022-11-13T09:15:43.413Z,35.50
2022-11-13T09:18:11.695Z,36.50
2022-11-13T09:20:40.073Z,35.00
2022-11-13T09:23:09.581Z,34.00
2022-11-13T09:25:38.322Z,35.00
2022-11-13T09:28:07.564Z,33.50
2022-11-13T09:30:38.767Z,38.00
2022-11-13T09:37:20.633Z,34.00
2022-11-13T09:39:49.121Z,36.00
2022-11-13T09:42:26.789Z,36.00
2022-11-13T09:45:00.911Z,33.50
2022-11-13T09:47:35.755Z,35.50
2022-11-13T09:50:23.597Z,36.00
2022-11-13T09:52:52.467Z,36.00
2022-11-13T09:55:24.822Z,31.00
2022-11-13T09:58:07.575Z,36.50
2022-11-13T10:00:37.785Z,32.00
2022-11-13T10:03:59.735Z,33.50
2022-11-13T10:06:47.693Z,21.33
2022-11-13T10:09:55.676Z,25.00
2022-11-13T10:12:24.159Z,33.00
2022-11-13T10:14:54.489Z,36.00
2022-11-13T10:17:32.383Z,35.00
2022-11-13T10:20:05.210Z,33.33
2022-11-13T10:22:41.615Z,37.00
2022-11-13T10:25:17.514Z,36.00
2022-11-13T10:27:54.884Z,33.00
2022-11-13T10:30:23.688Z,37.00
2022-11-13T10:32:52.976Z,35.50
2022-11-13T10:35:45.758Z,35.00
2022-11-13T10:38:21.216Z,35.00
2022-11-13T10:40:49.651Z,36.00
2022-11-13T10:43:23.612Z,34.00
2022-11-13T10:45:59.805Z,35.00
2022-11-13T10:48:33.739Z,38.00
2022-11-13T10:51:05.480Z,33.00
2022-11-13T10:53:42.472Z,33.00
2022-11-13T10:56:25.805Z,33.00
2022-11-13T10:59:23.265Z,39.00
2022-11-13T11:01:51.661Z,31.00
2022-11-13T11:04:30.367Z,28.00
2022-11-13T11:07:20.028Z,31.00
2022-11-13T11:09:51.291Z,31.00
2022-11-13T11:12:29.229Z,33.50
2022-11-13T11:15:01.984Z,33.00
2022-11-13T11:17:51.345Z,35.00
2022-11-13T11:20:49.061Z,32.67
2022-11-13T11:23:43.256Z,33.00
2022-11-13T11:26:38.610Z,31.50
2022-11-13T11:29:19.898Z,28.50
2022-11-13T11:31:54.517Z,36.00
2022-11-13T11:34:30.885Z,33.00
2022-11-13T11:37:20.568Z,29.00
2022-11-13T11:39:51.910Z,30.00
2022-11-13T11:42:29.512Z,30.67
2022-11-13T11:45:03.032Z,33.00
2022-11-13T11:47:31.283Z,28.50
2022-11-13T11:49:59.969Z,30.00
2022-11-13T11:52:44.628Z,33.00
2022-11-13T11:55:19.255Z,31.00
2022-11-13T11:57:51.323Z,28.00
2022-11-13T12:00:20.732Z,31.00
2022-11-13T12:03:26.688Z,16.00
2022-11-13T12:06:16.079Z,30.00
2022-11-13T12:08:46.494Z,32.50
2022-11-13T12:11:22.996Z,30.00
2022-11-13T12:14:13.451Z,31.00
2022-11-13T12:16:52.685Z,30.50
2022-11-13T12:19:55.377Z,29.50
2022-11-13T12:22:39.723Z,32.00
2022-11-13T12:25:19.887Z,29.50
2022-11-13T12:27:53.887Z,26.50
2022-11-13T12:35:17.381Z,28.50
2022-11-13T12:42:22.457Z,26.00
2022-11-13T12:45:25.910Z,27.50
2022-11-13T12:47:54.440Z,27.50
2022-11-13T12:50:32.046Z,28.00
2022-11-13T12:53:08.774Z,31.00
2022-11-13T12:55:39.853Z,24.00
2022-11-13T12:58:24.511Z,28.50
2022-11-13T13:00:55.917Z,31.00
2022-11-13T13:03:39.502Z,30.00
2022-11-13T13:06:40.419Z,29.67
2022-11-13T13:09:45.687Z,26.00
2022-11-13T13:12:22.976Z,35.50
2022-11-13T13:15:00.575Z,30.33
2022-11-13T13:17:29.131Z,28.00
2022-11-13T13:20:24.774Z,31.00
2022-11-13T13:22:59.227Z,31.00
2022-11-13T13:25:30.530Z,30.00
2022-11-13T13:28:28.587Z,27.00
2022-11-13T13:31:13.382Z,31.50
2022-11-13T13:33:57.025Z,35.00
2022-11-13T13:36:44.137Z,33.00
2022-11-13T13:39:15.177Z,30.00
2022-11-13T13:42:21.045Z,30.50
2022-11-13T13:45:32.529Z,28.00
2022-11-13T13:48:01.519Z,31.00
2022-11-13T13:50:36.402Z,30.00
2022-11-13T13:53:05.073Z,28.00
2022-11-13T13:55:36.593Z,28.00
2022-11-13T13:58:10.360Z,27.00
2022-11-13T14:00:59.140Z,27.00
2022-11-13T14:03:29.517Z,28.33
2022-11-13T14:06:09.843Z,30.00
2022-11-13T14:08:38.116Z,24.50
2022-11-13T14:11:30.050Z,29.67
2022-11-13T14:14:09.559Z,25.00
2022-11-13T14:17:07.667Z,27.00
2022-11-13T14:19:36.252Z,26.50
2022-11-13T14:22:06.728Z,25.00
2022-11-13T14:24:48.580Z,22.00
2022-11-13T14:27:20.629Z,29.00
2022-11-13T14:29:55.886Z,23.00
2022-11-13T14:32:32.678Z,26.00
2022-11-13T14:35:03.290Z,25.00
2022-11-13T14:37:39.860Z,24.33
2022-11-13T14:40:24.196Z,24.00
2022-11-13T14:43:05.700Z,22.00
2022-11-13T14:45:34.529Z,21.00
2022-11-13T14:48:19.987Z,20.00
2022-11-13T14:50:55.315Z,21.00
2022-11-13T14:53:38.437Z,17.00
2022-11-13T14:56:12.011Z,20.50
2022-11-13T14:58:47.533Z,22.50
2022-11-13T15:01:24.366Z,19.50
2022-11-13T15:03:52.934Z,13.00
2022-11-13T15:06:26.548Z,22.00
2022-11-13T15:08:56.876Z,25.50
2022-11-13T15:11:26.962Z,21.00
2022-11-13T15:13:56.982Z,22.00
2022-11-13T15:16:29.737Z,22.00
2022-11-13T15:19:10.066Z,25.00
2022-11-13T15:21:38.940Z,21.50
2022-11-13T15:24:07.629Z,18.00
2022-11-13T15:26:35.911Z,19.50
2022-11-13T15:29:05.412Z,20.50
2022-11-13T15:31:39.508Z,21.00
2022-11-13T15:34:11.493Z,24.00
2022-11-13T15:36:42.641Z,21.00
2022-11-13T15:39:21.125Z,22.00
2022-11-13T15:41:52.316Z,22.00
2022-11-13T15:44:20.889Z,24.00
2022-11-13T15:46:49.259Z,23.50
2022-11-13T15:49:17.737Z,25.00
2022-11-13T15:51:46.845Z,17.50
2022-11-13T15:54:35.300Z,23.00
2022-11-13T15:57:03.871Z,20.50
2022-11-13T15:59:32.149Z,24.00
2022-11-13T16:02:00.585Z,23.67
2022-11-13T16:04:50.450Z,22.00
2022-11-13T16:07:21.625Z,19.00
2022-11-13T16:09:49.934Z,20.50
2022-11-13T16:12:18.518Z,20.00
2022-11-13T16:14:47.023Z,26.50
2022-11-13T16:17:20.483Z,25.00
2022-11-13T16:19:52.442Z,23.50
2022-11-13T16:22:23.510Z,24.00
2022-11-13T16:24:51.793Z,23.00
2022-11-13T16:27:27.942Z,22.50
2022-11-13T16:29:56.321Z,25.00
2022-11-13T16:32:24.601Z,23.50
2022-11-13T16:34:52.973Z,20.00
2022-11-13T16:37:25.187Z,26.50
2022-11-13T16:39:53.526Z,18.00
2022-11-13T16:42:21.902Z,20.50
2022-11-13T16:44:51.029Z,23.00
2022-11-13T16:47:24.598Z,25.67
2022-11-13T16:49:53.081Z,25.00
2022-11-13T16:52:21.227Z,19.67
2022-11-13T16:54:51.790Z,26.00
2022-11-13T16:57:20.266Z,27.50
2022-11-13T16:59:48.765Z,20.00
2022-11-13T17:02:18.262Z,19.00
2022-11-13T17:04:46.638Z,24.50
2022-11-13T17:07:16.082Z,22.50
2022-11-13T17:09:46.080Z,27.00
2022-11-13T17:12:15.479Z,21.00
2022-11-13T17:14:46.831Z,22.00
2022-11-13T17:17:15.600Z,23.00
2022-11-13T17:19:46.649Z,23.00
2022-11-13T17:22:17.295Z,22.00
2022-11-13T17:24:45.807Z,21.50
2022-11-13T17:27:14.235Z,22.00
2022-11-13T17:29:42.642Z,24.00
2022-11-13T17:32:11.303Z,20.50
2022-11-13T17:34:39.888Z,25.00
2022-11-13T17:37:08.278Z,28.00
2022-11-13T17:39:36.645Z,25.33
2022-11-13T17:42:07.281Z,19.00
2022-11-13T17:44:35.759Z,23.00
2022-11-13T17:47:04.238Z,27.00
2022-11-13T17:49:32.620Z,23.50
2022-11-13T17:52:00.999Z,25.00
2022-11-13T17:54:30.096Z,25.00
2022-11-13T17:56:58.372Z,24.67
2022-11-13T17:59:26.748Z,23.00
2022-11-13T18:01:55.234Z,18.00
2022-11-13T18:04:24.022Z,23.50
2022-11-13T18:06:52.382Z,26.50
2022-11-13T18:09:20.881Z,22.00
2022-11-13T18:11:49.264Z,20.00
2022-11-13T18:14:19.180Z,26.00
2022-11-13T18:16:47.452Z,24.00
2022-11-13T18:19:17.370Z,23.00
2022-11-13T18:21:45.783Z,27.00
2022-11-13T18:24:17.156Z,24.00
2022-11-13T18:26:46.296Z,23.00
2022-11-13T18:29:14.687Z,22.33
2022-11-13T18:31:43.054Z,23.00
2022-11-13T18:34:16.927Z,25.00
2022-11-13T18:36:46.171Z,21.50
2022-11-13T18:39:16.777Z,23.00
2022-11-13T18:41:45.486Z,22.50
2022-11-13T18:44:13.859Z,24.00
2022-11-13T18:46:42.392Z,19.50
2022-11-13T18:49:11.027Z,24.00
2022-11-13T18:51:39.414Z,21.00
2022-11-13T18:54:11.884Z,18.00
2022-11-13T18:56:40.985Z,23.00
2022-11-13T18:59:10.027Z,24.00
2022-11-13T19:01:40.288Z,22.00
2022-11-13T19:04:27.700Z,14.00
2022-11-13T19:06:56.326Z,23.50
2022-11-13T19:09:24.692Z,25.00
2022-11-13T19:11:54.615Z,22.50
2022-11-13T19:14:23.002Z,19.00
2022-11-13T19:16:51.671Z,24.00
2022-11-13T19:19:22.423Z,14.00
2022-11-13T19:21:51.333Z,20.00
2022-11-13T19:24:19.775Z,22.00
2022-11-13T19:26:48.416Z,25.00
2022-11-13T19:29:16.945Z,24.00
2022-11-13T19:31:46.962Z,20.67
2022-11-13T19:34:15.657Z,22.00
2022-11-13T19:36:45.364Z,26.00
2022-11-13T19:39:13.860Z,23.00
2022-11-13T19:41:42.327Z,24.00
2022-11-13T19:44:10.704Z,18.00
2022-11-13T19:46:39.091Z,22.50
2022-11-13T19:49:07.984Z,21.00
2022-11-13T19:51:36.276Z,25.00
2022-11-13T19:54:04.670Z,23.00
2022-11-13T19:56:33.116Z,25.00
2022-11-13T19:59:01.591Z,22.00
2022-11-13T20:01:32.251Z,27.50
2022-11-13T20:04:02.736Z,22.00
2022-11-13T20:06:32.549Z,22.00
2022-11-13T20:09:02.381Z,26.00
2022-11-13T20:11:30.761Z,22.00
2022-11-13T20:13:59.154Z,23.00
2022-11-13T20:16:27.632Z,20.00
2022-11-13T20:18:59.789Z,26.00
2022-11-13T20:21:30.988Z,26.50
2022-11-13T20:24:00.875Z,20.50
2022-11-13T20:26:30.147Z,25.00
2022-11-13T20:28:58.430Z,26.00
2022-11-13T20:31:27.997Z,23.00
2022-11-13T20:33:57.513Z,22.00
2022-11-13T20:38:56.263Z,23.50
2022-11-13T20:41:25.444Z,23.00
2022-11-13T20:43:56.547Z,21.00
2022-11-13T20:46:24.872Z,20.00
2022-11-13T20:48:53.361Z,20.75
2022-11-13T20:51:25.001Z,23.00
2022-11-13T20:53:53.897Z,27.00
2022-11-13T20:56:23.742Z,24.00
2022-11-13T20:58:52.188Z,26.00
2022-11-13T21:01:23.000Z,21.50
2022-11-13T21:03:51.819Z,20.00
2022-11-13T21:06:22.141Z,21.00
2022-11-13T21:08:50.414Z,22.00
2022-11-13T21:11:25.655Z,26.00
2022-11-13T21:13:55.677Z,23.00
2022-11-13T21:16:25.186Z,17.00
2022-11-13T21:18:55.745Z,24.00
2022-11-13T21:21:26.469Z,18.00
2022-11-13T21:23:59.328Z,22.00
2022-11-13T21:26:29.245Z,19.50
2022-11-13T21:28:57.685Z,22.50
2022-11-13T21:31:27.034Z,18.00
2022-11-13T21:33:55.406Z,23.50
2022-11-13T21:36:26.665Z,17.00
2022-11-13T21:38:56.364Z,23.33
2022-11-13T21:41:25.458Z,22.00
2022-11-13T21:44:00.554Z,23.00
2022-11-13T21:46:34.435Z,21.00
2022-11-13T21:49:12.304Z,25.00
2022-11-13T21:51:42.734Z,21.33
2022-11-13T21:54:10.983Z,27.00
2022-11-13T21:56:39.902Z,22.00
2022-11-13T21:59:08.894Z,26.50
2022-11-13T22:01:38.875Z,19.50
2022-11-13T22:04:07.304Z,22.00
2022-11-13T22:06:42.349Z,26.00
2022-11-13T22:09:21.458Z,25.00
2022-11-13T22:11:50.349Z,24.00
2022-11-13T22:14:19.042Z,19.00
2022-11-13T22:16:47.936Z,21.00
2022-11-13T22:19:20.344Z,22.50
2022-11-13T22:21:52.981Z,22.00
2022-11-13T22:24:21.263Z,20.67
2022-11-13T22:26:49.642Z,23.00
2022-11-13T22:29:18.118Z,19.50
2022-11-13T22:31:47.011Z,20.00
2022-11-13T22:34:15.317Z,21.00
2022-11-13T22:36:43.564Z,22.50
2022-11-13T22:39:11.946Z,22.00
2022-11-13T22:41:40.321Z,18.75
2022-11-13T22:44:12.265Z,24.00
2022-11-13T22:46:40.871Z,22.50
2022-11-13T22:49:12.427Z,19.50
2022-11-13T22:51:41.927Z,24.50
2022-11-13T22:54:12.107Z,22.00
2022-11-13T22:56:41.659Z,18.25
2022-11-13T22:59:11.776Z,18.00
2022-11-13T23:01:41.486Z,20.00
2022-11-13T23:04:13.350Z,20.00
2022-11-13T23:06:43.196Z,18.00
2022-11-13T23:09:11.648Z,21.50
2022-11-13T23:11:41.053Z,16.00
2022-11-13T23:14:12.497Z,24.00
2022-11-13T23:16:40.776Z,19.00
2022-11-13T23:19:09.605Z,22.00
2022-11-13T23:21:38.049Z,16.50
2022-11-13T23:24:06.840Z,20.00
2022-11-13T23:26:35.212Z,22.00
2022-11-13T23:29:03.806Z,19.00
2022-11-13T23:31:32.179Z,22.00
2022-11-13T23:34:00.555Z,17.00
2022-11-13T23:36:30.828Z,20.50
2022-11-13T23:38:59.274Z,18.00
2022-11-13T23:41:27.641Z,18.00
2022-11-13T23:44:11.281Z,20.00
2022-11-13T23:46:39.860Z,18.00
2022-11-13T23:49:08.237Z,16.00
2022-11-13T23:51:36.621Z,20.00
2022-11-13T23:54:05.107Z,8.50
2022-11-13T23:56:33.482Z,22.00
2022-11-13T23:59:01.861Z,16.00
